Briefing drone pour La grand-croix

Rechercher une autre localisation

Conditions de vol :


Nous sommes le : Jeudi 30 juin 2022
Il est 16:35 UTC (18:35 LT)

Lever de soleil : 03:30 UTC (05:30 LT)
Coucher de soleil : 20:00 UTC (22:00 LT)

Météo

L'essentiel des conditions de vol

VIGILANCE MÉTÉO FRANCE - Loire (42)
Vigilance Orange : Orages
METAR de LFMH
LFMH 301630Z AUTO 36008KT 9999 OVC038/// ///TCU 15/11 Q1017

Date d'émission: 30/06/2022
Heure d'émission: 16:30 UTC
Vent: 360° pour 8 KT (15 km/h)
Visibilité horizontale: > 10 km
Plafond :
- Couvert à 3800ft (1158m)
Température: 15 °C
Point de rosée: 11 °C
Humidité: 77%
Pression (QNH): 1017 hPa
TAF de LFMH
LFMH 161901Z 1619/1712 CNL

Conditions prévues :

Heure d'émission : Bulletin éffectué le 16 à 19:00 UTC
Prévision : Valide du 16 a 19:00 UTC au 17 a 12:00 UTC
Nuages : à 0ft (0 m)
WEBCAM POUR LA GRAND-CROIX

Réglementation

Voler en sécurité

CARTES AERONAUTIQUE 1/500.000
CARTES VAC (LFMH)
SUP AIP




Chargement des AIP...
NOTAM (LA GRAND-CROIX + Terrain à proximité / FIR )




Chargement des NOTAMS...
CONTACT PREFECTURE 42


Avertissement : Les données mises à disposition sont indicatives. Oxygène Drone ne pourra être tenu responsable de dégâts causés aux biens et aux personnes.